Rechercher aéroport 
image banner adimage banner ad
image banner ad

FYOKAP - Okapanje

Situé à , Namibia

ICAO - , IATA -

Données fournies par Airmate  

Information générale

Coordonnées: S22°35'21" E17°57'56"
Élévation : 4921 feet MSL.
 
Voir autres Aéroports à Khomae

Données opérationnelles

Accessible au public
Heure actuelle UTC:
Heure actuelle locale:
Météo à : FYWH - Windhoek/Hosea Kutako Intl ( 52 km )
METAR: FYWH 170500Z 19005KT CAVOK 17/13 Q1019 NOSIG
TAF: TAF FYWH 162200Z 1700/1800 22005KT CAVOK
Voir NOTAMs / SUP AIP / TFR affectant cet aéroport [VIEW]
Fréquences de communication: [VIEW]

Pistes:

Coordonnées de l'aéroport

Adresse: Namibia

Vue satellite de FYOKAP